Time;durP1;ratioP1;P1;durP2;ratioP2;P2;SDS_P1;SDS_P2;PMS_P1;PMS_P2;Temp;Humidity;BMP_temperature;BMP_pressure;BME280_temperature;BME280_humidity;BME280_pressure;Samples;Min_cycle;Max_cycle;Signal;HPM_P1;HPM_P2
2024/02/08 00:03:46;;;;;;;20.57;12.40;;;6.20;95.20;;;;;;10396224;28;20323;-67
2024/02/08 00:08:53;;;;;;;24.03;13.00;;;6.10;95.20;;;;;;10396105;28;20304;-67
2024/02/08 00:13:56;;;;;;;20.83;11.93;;;6.10;95.20;;;;;;10404749;28;20227;-68
2024/02/08 00:19:02;;;;;;;27.83;12.17;;;6.10;95.20;;;;;;10400332;28;20268;-66
2024/02/08 00:24:07;;;;;;;21.60;11.90;;;6.10;95.20;;;;;;10400329;28;20233;-66
2024/02/08 00:29:11;;;;;;;21.13;12.10;;;6.10;95.30;;;;;;10403418;28;20257;-66
2024/02/08 00:34:14;;;;;;;25.83;12.70;;;6.00;95.30;;;;;;10403502;28;20301;-67
2024/02/08 00:39:19;;;;;;;23.23;12.03;;;6.10;95.30;;;;;;10406447;28;20699;-67
2024/02/08 00:44:27;;;;;;;26.83;12.67;;;6.00;95.30;;;;;;10403278;28;20231;-67
2024/02/08 00:49:31;;;;;;;24.30;12.73;;;6.00;95.30;;;;;;10393265;28;20961;-68
2024/02/08 00:54:36;;;;;;;21.00;12.50;;;6.00;95.30;;;;;;10393285;28;20288;-67
2024/02/08 00:59:40;;;;;;;23.20;12.83;;;6.00;95.30;;;;;;10399370;28;20246;-67
2024/02/08 01:04:48;;;;;;;22.70;13.23;;;5.90;95.30;;;;;;10406954;28;20285;-66
2024/02/08 01:09:53;;;;;;;18.50;12.23;;;5.90;95.40;;;;;;10397854;28;21599;-67
2024/02/08 01:14:57;;;;;;;20.27;12.50;;;5.90;95.30;;;;;;10408004;28;20234;-68
2024/02/08 01:20:00;;;;;;;25.37;13.70;;;6.00;95.40;;;;;;10395463;28;20246;-67
2024/02/08 01:25:07;;;;;;;26.97;14.57;;;6.00;95.40;;;;;;10396457;28;20295;-67
2024/02/08 01:30:13;;;;;;;22.10;13.53;;;5.90;95.50;;;;;;10404451;28;20269;-68
2024/02/08 01:35:21;;;;;;;23.47;14.13;;;6.00;95.70;;;;;;10403003;28;20550;-68
2024/02/08 01:40:27;;;;;;;26.23;14.00;;;6.00;95.90;;;;;;10402526;28;20263;-67
2024/02/08 01:45:33;;;;;;;28.03;13.87;;;6.00;95.80;;;;;;10402915;28;20865;-67
2024/02/08 01:50:39;;;;;;;24.87;14.10;;;6.00;95.60;;;;;;10399695;28;20869;-67
2024/02/08 01:55:49;;;;;;;24.47;13.97;;;6.00;95.60;;;;;;10397242;28;20761;-67
2024/02/08 02:00:56;;;;;;;28.17;14.50;;;6.00;95.50;;;;;;10391719;28;20709;-67
2024/02/08 02:06:00;;;;;;;26.93;13.77;;;6.00;95.60;;;;;;10407747;28;20265;-68
2024/02/08 02:11:25;;;;;;;25.37;13.93;;;6.00;95.70;;;;;;10406854;28;20249;-68
2024/02/08 02:16:28;;;;;;;24.73;14.03;;;6.00;95.60;;;;;;10398056;28;20279;-67
2024/02/08 02:21:34;;;;;;;23.93;13.97;;;5.90;95.60;;;;;;10399202;28;20666;-67
2024/02/08 02:26:38;;;;;;;22.57;14.97;;;5.90;95.60;;;;;;10407275;28;20714;-68
2024/02/08 02:31:42;;;;;;;22.90;13.50;;;5.90;96.00;;;;;;10395485;28;20689;-67
2024/02/08 02:36:51;;;;;;;26.30;14.80;;;6.00;95.70;;;;;;10403295;28;20207;-67
2024/02/08 02:41:54;;;;;;;27.97;16.63;;;5.90;95.70;;;;;;10398095;28;20255;-65
2024/02/08 02:46:59;;;;;;;24.30;15.30;;;5.90;95.70;;;;;;10393830;28;20259;-66
2024/02/08 02:52:07;;;;;;;26.73;14.27;;;6.00;96.00;;;;;;10387971;28;20811;-66
2024/02/08 02:57:12;;;;;;;28.40;15.47;;;6.00;96.00;;;;;;10392297;28;20224;-65
2024/02/08 03:02:28;;;;;;;28.03;15.00;;;6.00;95.90;;;;;;10394865;28;20267;-65
2024/02/08 03:07:33;;;;;;;31.60;15.50;;;6.00;95.90;;;;;;10390594;28;20258;-66
2024/02/08 03:12:37;;;;;;;22.43;14.13;;;6.00;95.90;;;;;;10392072;28;20768;-66
2024/02/08 03:17:41;;;;;;;22.87;13.77;;;6.00;95.80;;;;;;10390136;28;20646;-67
2024/02/08 03:22:46;;;;;;;23.63;13.97;;;6.00;95.80;;;;;;10388591;28;20305;-68
2024/02/08 03:27:51;;;;;;;28.63;14.90;;;6.00;95.80;;;;;;10389489;28;20243;-67
2024/02/08 03:32:57;;;;;;;26.77;13.87;;;5.90;95.80;;;;;;10399614;28;20256;-66
2024/02/08 03:38:02;;;;;;;24.73;14.30;;;6.00;95.80;;;;;;10397860;28;20292;-66
2024/02/08 03:43:06;;;;;;;22.97;15.17;;;5.90;95.70;;;;;;10389191;28;20322;-66
2024/02/08 03:48:10;;;;;;;25.47;14.53;;;5.90;95.90;;;;;;10397194;28;20325;-66
2024/02/08 03:53:17;;;;;;;26.40;14.97;;;5.90;95.90;;;;;;10405474;28;20235;-66
2024/02/08 03:58:23;;;;;;;23.10;14.20;;;6.00;95.90;;;;;;10405749;28;20231;-67
2024/02/08 04:03:43;;;;;;;28.50;15.37;;;6.00;96.00;;;;;;10395306;28;20270;-66
2024/02/08 04:09:08;;;;;;;27.03;15.10;;;6.00;96.00;;;;;;10403684;28;20303;-66
2024/02/08 04:57:07;;;;;;;25.13;16.47;;;6.10;96.00;;;;;;10382701;28;20231;-66
2024/02/08 05:02:11;;;;;;;30.43;16.87;;;6.00;96.00;;;;;;10405142;28;20258;-66
2024/02/08 05:07:15;;;;;;;25.97;16.27;;;6.10;96.10;;;;;;10404897;28;20241;-65
2024/02/08 05:12:20;;;;;;;30.20;17.20;;;6.00;96.10;;;;;;10401547;28;20297;-66
2024/02/08 05:17:25;;;;;;;31.10;16.27;;;6.10;96.60;;;;;;10407629;28;20257;-66
2024/02/08 05:22:32;;;;;;;27.33;17.23;;;6.10;96.00;;;;;;10407253;28;20262;-66
2024/02/08 05:27:39;;;;;;;29.40;18.13;;;6.00;96.00;;;;;;10397530;28;20219;-65
2024/02/08 05:32:44;;;;;;;26.63;16.33;;;6.10;96.20;;;;;;10404732;28;20714;-65
2024/02/08 05:37:47;;;;;;;28.30;17.03;;;6.00;96.10;;;;;;10407957;28;20198;-66
2024/02/08 05:42:54;;;;;;;27.57;17.33;;;6.00;96.00;;;;;;10398458;28;20312;-65
2024/02/08 05:48:05;;;;;;;29.50;16.97;;;6.00;96.00;;;;;;10402811;28;20281;-66
2024/02/08 05:53:09;;;;;;;30.30;17.50;;;6.00;96.10;;;;;;10409273;28;20211;-65
2024/02/08 05:58:18;;;;;;;27.83;17.00;;;6.00;96.20;;;;;;10409634;28;20250;-65
2024/02/08 06:03:28;;;;;;;26.63;16.80;;;6.10;96.20;;;;;;10408924;28;20234;-65
2024/02/08 06:08:39;;;;;;;29.27;18.40;;;6.00;96.10;;;;;;10409545;28;20337;-66
2024/02/08 06:13:50;;;;;;;32.80;18.10;;;6.00;96.10;;;;;;10406644;28;20199;-66
2024/02/08 06:19:02;;;;;;;30.77;18.07;;;6.10;96.20;;;;;;10409677;28;20215;-66
2024/02/08 06:24:29;;;;;;;33.20;18.50;;;6.00;96.10;;;;;;10402722;28;20212;-65
2024/02/08 06:29:46;;;;;;;32.63;18.27;;;6.00;96.20;;;;;;10406275;28;20266;-67
2024/02/08 06:34:55;;;;;;;27.03;18.30;;;6.00;96.20;;;;;;10406325;28;20202;-66
2024/02/08 06:40:04;;;;;;;31.93;19.40;;;6.00;96.20;;;;;;10407827;28;20218;-68
2024/02/08 07:39:30;;;;;;;33.13;19.13;;;6.20;96.30;;;;;;10403362;28;20218;-62
2024/02/08 07:44:22;;;;;;;30.77;18.77;;;6.20;96.20;;;;;;10408162;28;20204;-62
2024/02/08 07:49:41;;;;;;;33.83;19.07;;;6.20;96.60;;;;;;10408238;28;20231;-62
2024/02/08 07:54:46;;;;;;;30.43;17.50;;;6.30;97.10;;;;;;10404718;28;20656;-63
2024/02/08 07:59:52;;;;;;;30.57;18.10;;;6.30;96.40;;;;;;10396708;28;20227;-65
2024/02/08 08:04:57;;;;;;;29.70;17.63;;;6.40;96.40;;;;;;10403114;28;20800;-64
2024/02/08 08:10:07;;;;;;;25.33;17.00;;;6.40;96.30;;;;;;10394537;28;20261;-64
2024/02/08 08:15:14;;;;;;;29.57;17.73;;;6.40;96.30;;;;;;10392990;28;20204;-64
2024/02/08 08:31:35;;;;;;;30.30;15.93;;;6.60;96.20;;;;;;10663183;27;20560;-64
2024/02/08 08:36:41;;;;;;;24.93;16.23;;;6.60;96.20;;;;;;10636051;27;20199;-62
2024/02/08 08:41:47;;;;;;;23.30;14.53;;;6.60;96.20;;;;;;10618046;27;20212;-64
2024/02/08 08:46:52;;;;;;;23.07;13.93;;;6.70;96.20;;;;;;10614112;27;20216;-64
2024/02/08 08:52:04;;;;;;;19.40;12.47;;;6.70;96.20;;;;;;10617450;27;21141;-64
2024/02/08 08:57:12;;;;;;;24.33;12.93;;;6.80;96.00;;;;;;10611275;27;20193;-66
2024/02/08 09:02:17;;;;;;;22.77;12.20;;;6.90;96.10;;;;;;10629221;27;20758;-67
2024/02/08 09:07:21;;;;;;;20.70;11.83;;;7.00;95.90;;;;;;10624206;27;20234;-66
2024/02/08 09:12:29;;;;;;;17.47;10.87;;;7.10;97.20;;;;;;10622799;27;20258;-65
2024/02/08 09:17:51;;;;;;;17.20;11.00;;;7.10;96.20;;;;;;10626488;27;20199;-66
2024/02/08 09:22:57;;;;;;;16.93;10.93;;;7.20;96.10;;;;;;10613493;27;20220;-66
2024/02/08 09:28:23;;;;;;;15.97;10.80;;;7.30;96.00;;;;;;10609140;27;20273;-67
2024/02/08 09:33:35;;;;;;;17.43;11.07;;;7.30;95.90;;;;;;10601624;27;20208;-64
2024/02/08 09:38:43;;;;;;;20.23;11.50;;;7.30;95.90;;;;;;10603496;27;20587;-66
2024/02/08 09:43:53;;;;;;;14.40;10.90;;;7.30;95.90;;;;;;10582573;27;20194;-65
2024/02/08 09:49:11;;;;;;;16.23;11.33;;;7.30;95.70;;;;;;10578558;27;20256;-67
2024/02/08 09:54:16;;;;;;;15.60;10.40;;;7.40;96.00;;;;;;10583423;27;20766;-66
2024/02/08 09:59:40;;;;;;;19.70;10.93;;;7.40;97.00;;;;;;10595608;27;20259;-67
2024/02/08 10:04:49;;;;;;;15.50;10.60;;;7.40;96.50;;;;;;10594257;27;20249;-66
2024/02/08 10:10:03;;;;;;;14.10;9.80;;;7.50;96.60;;;;;;10580801;27;20295;-66
2024/02/08 10:15:14;;;;;;;11.73;8.77;;;7.50;98.10;;;;;;10594395;27;20254;-66
2024/02/08 10:20:36;;;;;;;12.67;9.20;;;7.50;97.90;;;;;;10597923;27;20739;-73
2024/02/08 10:31:18;;;;;;;11.87;8.27;;;7.50;96.70;;;;;;10501691;27;20693;-66
2024/02/08 10:36:31;;;;;;;10.37;7.83;;;7.60;97.40;;;;;;10584055;27;20276;-65
2024/02/08 10:41:44;;;;;;;11.57;8.30;;;7.60;96.70;;;;;;10586032;27;20217;-66
2024/02/08 10:46:55;;;;;;;9.47;7.60;;;7.60;96.70;;;;;;10583618;27;20201;-65
2024/02/08 10:52:01;;;;;;;10.20;7.70;;;7.60;96.80;;;;;;10590988;27;20240;-66
2024/02/08 10:57:09;;;;;;;10.70;8.23;;;7.60;96.60;;;;;;10590414;27;20181;-66
2024/02/08 11:02:31;;;;;;;10.40;7.53;;;7.60;96.70;;;;;;10583009;27;20217;-65
2024/02/08 11:07:45;;;;;;;12.93;8.60;;;7.70;96.90;;;;;;10588250;27;20258;-66
2024/02/08 11:12:52;;;;;;;11.40;8.43;;;7.70;97.30;;;;;;10579440;27;20209;-65
2024/02/08 11:17:57;;;;;;;10.70;8.10;;;7.80;97.00;;;;;;10595108;27;20193;-66
2024/02/08 11:23:09;;;;;;;9.53;7.77;;;7.80;97.20;;;;;;10549689;22;20216;-63
2024/02/08 11:28:15;;;;;;;11.97;7.63;;;7.80;97.40;;;;;;10452771;28;20218;-64
2024/02/08 11:33:32;;;;;;;9.37;7.87;;;7.80;97.30;;;;;;10450784;28;20227;-64
2024/02/08 11:38:40;;;;;;;9.60;7.87;;;7.80;97.40;;;;;;10433781;28;20200;-62
2024/02/08 11:43:47;;;;;;;9.67;7.53;;;7.80;97.60;;;;;;10441136;28;20281;-62
2024/02/08 11:48:53;;;;;;;10.37;7.87;;;7.70;97.70;;;;;;10454169;28;20791;-62
2024/02/08 11:54:09;;;;;;;9.70;7.77;;;7.80;97.90;;;;;;10450499;28;20223;-63
2024/02/08 11:59:17;;;;;;;10.73;7.40;;;7.80;98.30;;;;;;10449135;28;20239;-63
2024/02/08 12:04:22;;;;;;;8.50;6.87;;;7.80;98.40;;;;;;10449707;28;20219;-62
2024/02/08 12:09:31;;;;;;;10.50;7.70;;;7.80;98.80;;;;;;10450225;28;20737;-62
2024/02/08 12:14:39;;;;;;;9.13;7.10;;;7.80;99.10;;;;;;10449301;28;20261;-63
2024/02/08 12:19:44;;;;;;;9.80;7.60;;;7.80;99.40;;;;;;10451457;28;20200;-63
2024/02/08 12:24:59;;;;;;;10.00;8.17;;;7.80;99.90;;;;;;10450744;28;20231;-63
2024/02/08 12:30:04;;;;;;;12.37;8.47;;;7.80;99.90;;;;;;10445411;28;20693;-63
2024/02/08 12:35:13;;;;;;;18.53;11.10;;;7.80;99.80;;;;;;10442253;28;20215;-63
2024/02/08 12:40:20;;;;;;;11.63;8.37;;;7.80;99.90;;;;;;10439836;28;20593;-64
2024/02/08 12:45:24;;;;;;;11.63;9.20;;;7.80;99.80;;;;;;10454353;28;20214;-64
2024/02/08 12:50:31;;;;;;;10.97;8.67;;;7.80;99.90;;;;;;10455074;28;20230;-63
2024/02/08 12:55:36;;;;;;;11.00;8.50;;;7.80;99.50;;;;;;10455118;28;20535;-64
2024/02/08 13:00:40;;;;;;;12.53;9.37;;;7.90;99.70;;;;;;10442818;28;20211;-64
2024/02/08 13:05:45;;;;;;;12.73;9.53;;;7.80;99.60;;;;;;10448329;28;20219;-63
2024/02/08 13:10:59;;;;;;;14.60;9.70;;;7.80;99.90;;;;;;10449556;28;20301;-64
2024/02/08 13:16:09;;;;;;;13.43;10.67;;;7.90;99.90;;;;;;10454349;28;20253;-65
2024/02/08 13:21:15;;;;;;;12.67;10.23;;;7.90;99.90;;;;;;10454163;28;20273;-63
2024/02/08 13:26:20;;;;;;;12.83;10.00;;;7.90;99.90;;;;;;10453307;28;20203;-64
2024/02/08 13:31:38;;;;;;;13.27;10.60;;;7.90;99.90;;;;;;10453479;28;20288;-64
2024/02/08 13:36:43;;;;;;;13.80;10.47;;;7.90;99.90;;;;;;10452754;28;20195;-64
2024/02/08 13:41:49;;;;;;;11.67;9.87;;;7.80;99.90;;;;;;10452283;28;20223;-64
2024/02/08 13:46:53;;;;;;;11.23;10.10;;;7.80;99.90;;;;;;10452650;28;20203;-65
2024/02/08 13:51:57;;;;;;;11.23;10.03;;;7.90;99.90;;;;;;10453462;28;20308;-64
2024/02/08 13:57:12;;;;;;;12.20;10.90;;;7.80;99.90;;;;;;10451885;28;20203;-64
2024/02/08 14:02:16;;;;;;;12.50;10.57;;;7.80;99.90;;;;;;10452614;28;20832;-64
2024/02/08 14:07:25;;;;;;;12.67;11.33;;;7.80;99.90;;;;;;10452636;28;20195;-64
2024/02/08 14:12:33;;;;;;;10.87;9.67;;;7.70;99.90;;;;;;10451145;28;20232;-64
2024/02/08 14:17:40;;;;;;;13.03;10.57;;;7.70;99.90;;;;;;10452269;28;20203;-64
2024/02/08 14:22:45;;;;;;;10.00;8.37;;;7.70;99.90;;;;;;10448421;28;20222;-65
2024/02/08 14:27:50;;;;;;;10.23;8.83;;;7.70;99.90;;;;;;10451680;28;21732;-61
2024/02/08 14:32:55;;;;;;;9.73;8.73;;;7.60;99.90;;;;;;10450556;28;20368;-62
2024/02/08 14:37:58;;;;;;;10.23;8.57;;;7.60;99.90;;;;;;10449010;28;20760;-63
2024/02/08 14:43:05;;;;;;;17.33;10.70;;;7.60;99.90;;;;;;10444846;28;20223;-63
2024/02/08 14:48:10;;;;;;;9.17;8.00;;;7.60;99.90;;;;;;10450028;28;20245;-61
2024/02/08 14:53:13;;;;;;;9.10;7.70;;;7.50;99.90;;;;;;10450595;28;20245;-63
2024/02/08 14:58:40;;;;;;;9.87;7.50;;;7.50;99.90;;;;;;10448002;28;20204;-62
2024/02/08 15:03:44;;;;;;;7.93;7.07;;;7.50;99.90;;;;;;10446909;28;20215;-64
2024/02/08 15:08:54;;;;;;;9.27;7.33;;;7.50;99.90;;;;;;10446764;28;20237;-63
2024/02/08 15:14:02;;;;;;;9.13;7.60;;;7.50;99.90;;;;;;10442056;28;20245;-63
2024/02/08 15:19:05;;;;;;;10.67;8.00;;;7.50;99.90;;;;;;10452712;28;20199;-62
2024/02/08 15:24:22;;;;;;;8.53;7.50;;;7.40;99.90;;;;;;10450311;28;20235;-63
2024/02/08 15:29:33;;;;;;;8.27;7.13;;;7.40;99.90;;;;;;10447787;28;20273;-64
2024/02/08 15:40:13;;;;;;;11.87;8.70;;;7.30;99.90;;;;;;10447187;28;20575;-63
2024/02/08 15:45:27;;;;;;;9.57;7.87;;;7.30;99.90;;;;;;10445865;28;20314;-63
2024/02/08 15:50:36;;;;;;;9.53;7.87;;;7.20;99.90;;;;;;10439820;28;20215;-67
2024/02/08 15:55:42;;;;;;;10.37;8.10;;;7.20;99.90;;;;;;10449298;28;20226;-63
2024/02/08 16:01:10;;;;;;;9.43;8.17;;;7.20;99.90;;;;;;10452276;28;20273;-64
2024/02/08 16:11:36;;;;;;;9.07;7.57;;;7.30;99.90;;;;;;10447801;28;20230;-67
2024/02/08 16:16:41;;;;;;;11.18;10.10;;;7.30;99.90;;;;;;10446529;28;20493;-63
2024/02/08 16:21:45;;;;;;;8.30;7.23;;;7.50;99.90;;;;;;10449680;28;20831;-63
2024/02/08 16:26:56;;;;;;;8.83;7.90;;;7.50;99.90;;;;;;10447828;28;20203;-63
2024/02/08 16:32:06;;;;;;;8.63;7.73;;;7.40;99.90;;;;;;10447480;28;20749;-63
2024/02/08 16:37:30;;;;;;;8.93;7.53;;;7.40;99.90;;;;;;10446071;28;20544;-63
2024/02/08 16:42:35;;;;;;;8.13;7.27;;;7.30;99.90;;;;;;10445925;28;20934;-63
2024/02/08 16:47:51;;;;;;;11.90;9.17;;;7.20;99.90;;;;;;10447544;28;20647;-63
2024/02/08 16:52:59;;;;;;;9.27;8.13;;;7.20;99.90;;;;;;10456253;28;20275;-63
2024/02/08 16:58:16;;;;;;;10.37;7.83;;;7.20;99.90;;;;;;10455784;28;20206;-63
2024/02/08 17:09:00;;;;;;;7.73;6.93;;;7.10;99.90;;;;;;10445576;28;20230;-64
2024/02/08 17:14:08;;;;;;;9.27;7.80;;;7.20;99.90;;;;;;10460848;28;20276;-63
2024/02/08 17:19:46;;;;;;;8.83;7.47;;;7.20;99.90;;;;;;10460502;28;20206;-64
2024/02/08 17:25:03;;;;;;;8.20;7.40;;;7.20;99.90;;;;;;10462364;28;20262;-64
2024/02/08 17:30:16;;;;;;;9.00;7.93;;;7.20;99.90;;;;;;10491427;22;20238;-65
2024/02/08 17:35:22;;;;;;;8.43;7.63;;;7.20;99.90;;;;;;10487432;28;20248;-66
2024/02/08 17:40:30;;;;;;;10.27;8.57;;;7.20;99.90;;;;;;10497822;28;20217;-65
2024/02/08 17:45:54;;;;;;;9.10;8.20;;;7.30;99.90;;;;;;10501360;28;20509;-66
2024/02/08 17:51:07;;;;;;;11.17;9.07;;;7.30;99.90;;;;;;10504319;28;20267;-65
2024/02/08 17:56:17;;;;;;;10.33;9.20;;;7.30;99.90;;;;;;10498237;28;20653;-65
2024/02/08 18:01:31;;;;;;;10.53;9.43;;;7.30;99.90;;;;;;10498677;28;20750;-66
2024/02/08 18:06:37;;;;;;;10.57;9.47;;;7.30;99.90;;;;;;10504803;28;20324;-66
2024/02/08 18:11:42;;;;;;;11.23;9.93;;;7.30;99.90;;;;;;10490276;28;20698;-66
2024/02/08 18:16:45;;;;;;;11.43;10.03;;;7.30;99.90;;;;;;10485293;28;20706;-67
2024/02/08 18:21:51;;;;;;;10.87;9.77;;;7.40;99.90;;;;;;10500090;28;20217;-66
2024/02/08 18:27:00;;;;;;;11.43;10.33;;;7.40;99.90;;;;;;10486338;28;20315;-66
2024/02/08 18:32:06;;;;;;;11.73;10.10;;;7.40;99.90;;;;;;10492545;28;20238;-66
2024/02/08 18:37:11;;;;;;;13.87;11.93;;;7.50;99.90;;;;;;10492930;28;20218;-66
2024/02/08 18:42:20;;;;;;;11.93;10.77;;;7.50;99.90;;;;;;10495083;28;20196;-62
2024/02/08 18:47:28;;;;;;;13.03;11.63;;;7.50;99.90;;;;;;10492899;28;20276;-62
2024/02/08 18:52:36;;;;;;;13.33;11.93;;;7.50;99.90;;;;;;10491478;28;20213;-62
2024/02/08 18:57:40;;;;;;;14.20;12.00;;;7.50;99.90;;;;;;10491494;28;20226;-62
2024/02/08 19:02:44;;;;;;;13.70;12.30;;;7.50;99.90;;;;;;10475120;28;20222;-62
2024/02/08 19:07:51;;;;;;;13.93;12.43;;;7.60;99.90;;;;;;10481726;28;20315;-64
2024/02/08 19:12:54;;;;;;;14.30;12.80;;;7.60;99.90;;;;;;10489859;28;20238;-64
2024/02/08 19:17:58;;;;;;;16.53;13.57;;;7.60;99.90;;;;;;10483922;28;20254;-64
2024/02/08 19:23:12;;;;;;;15.67;13.70;;;7.60;99.90;;;;;;10494387;28;20570;-65
2024/02/08 19:28:21;;;;;;;20.50;15.93;;;7.60;99.90;;;;;;10494880;28;20730;-63
2024/02/08 19:33:25;;;;;;;18.97;15.73;;;7.60;99.90;;;;;;10477002;28;20250;-64
2024/02/08 19:38:30;;;;;;;17.13;15.27;;;7.70;99.90;;;;;;10493185;28;20248;-63
2024/02/08 19:43:36;;;;;;;17.97;15.27;;;7.70;99.90;;;;;;10483823;28;20228;-64
2024/02/08 19:48:41;;;;;;;18.00;15.00;;;7.70;99.90;;;;;;10475640;28;20695;-65
2024/02/08 19:53:48;;;;;;;18.70;15.57;;;7.70;99.90;;;;;;10485423;28;20250;-64
2024/02/08 19:58:53;;;;;;;20.43;16.90;;;7.80;99.90;;;;;;10493170;28;20253;-63
2024/02/08 20:04:01;;;;;;;17.50;15.53;;;7.80;99.90;;;;;;10492219;28;20698;-65
2024/02/08 20:09:07;;;;;;;19.77;16.43;;;7.80;99.90;;;;;;10486552;28;20303;-63
2024/02/08 20:14:13;;;;;;;22.47;16.97;;;7.90;99.90;;;;;;10491822;28;20295;-64
2024/02/08 20:19:17;;;;;;;17.77;11.70;;;7.90;99.90;;;;;;10488011;28;20222;-64
2024/02/08 20:24:23;;;;;;;12.50;7.33;;;8.00;99.90;;;;;;10483908;28;20230;-64
2024/02/08 20:29:28;;;;;;;13.57;6.07;;;8.30;99.90;;;;;;10478495;28;20312;-66
2024/02/08 20:34:32;;;;;;;11.80;6.60;;;8.70;99.90;;;;;;10482870;28;20591;-68
2024/02/08 20:39:38;;;;;;;12.67;5.80;;;9.00;99.90;;;;;;10480189;28;20301;-68
2024/02/08 20:44:43;;;;;;;11.82;5.32;;;9.30;99.90;;;;;;10485195;28;20323;-67
2024/02/08 20:49:47;;;;;;;10.30;4.73;;;9.60;99.90;;;;;;10483230;28;20762;-66
2024/02/08 20:54:53;;;;;;;11.35;5.60;;;9.80;99.90;;;;;;10476959;28;20239;-66
2024/02/08 20:59:59;;;;;;;10.43;5.63;;;9.90;99.90;;;;;;10479947;28;20231;-68
2024/02/08 21:05:05;;;;;;;16.45;5.55;;;10.10;99.90;;;;;;10476042;28;20222;-66
2024/02/08 21:10:10;;;;;;;12.60;5.32;;;10.20;99.90;;;;;;10481523;28;20236;-66
2024/02/08 21:15:14;;;;;;;10.55;5.72;;;10.30;99.90;;;;;;10472625;28;20254;-66
2024/02/08 21:20:18;;;;;;;14.30;6.80;;;10.30;99.90;;;;;;10476788;28;20219;-66
2024/02/08 21:25:24;;;;;;;12.02;5.95;;;10.30;99.90;;;;;;10476726;28;20223;-68
2024/02/08 21:30:31;;;;;;;15.73;5.80;;;10.30;99.90;;;;;;10469375;28;20280;-67
2024/02/08 21:35:36;;;;;;;13.20;6.15;;;10.40;99.90;;;;;;10480273;28;20296;-67
2024/02/08 21:40:45;;;;;;;13.68;6.45;;;10.40;99.90;;;;;;10489825;28;20280;-67
2024/02/08 21:45:50;;;;;;;13.68;5.85;;;10.40;99.90;;;;;;10488531;28;20268;-65
2024/02/08 21:50:53;;;;;;;15.27;6.57;;;10.40;99.90;;;;;;10474681;28;20693;-66
2024/02/08 21:55:58;;;;;;;11.05;5.55;;;10.50;99.90;;;;;;10481533;28;20281;-66
2024/02/08 22:01:02;;;;;;;10.13;5.28;;;10.50;99.90;;;;;;10477770;28;20247;-66
2024/02/08 22:06:24;;;;;;;14.27;5.95;;;10.50;99.90;;;;;;10478356;28;20237;-66
2024/02/08 22:11:30;;;;;;;12.18;5.93;;;10.50;99.90;;;;;;10427995;28;20262;-66
2024/02/08 22:16:35;;;;;;;18.17;6.45;;;10.50;99.90;;;;;;10464132;28;20274;-66
2024/02/08 22:21:39;;;;;;;12.57;5.50;;;10.50;99.90;;;;;;10487675;28;20231;-66
2024/02/08 22:26:51;;;;;;;12.97;5.27;;;10.50;99.90;;;;;;10487247;28;20249;-66
2024/02/08 22:31:55;;;;;;;14.20;6.65;;;10.50;99.90;;;;;;10476543;28;20204;-67
2024/02/08 22:36:59;;;;;;;11.97;5.60;;;10.50;99.90;;;;;;10476218;28;20246;-66
2024/02/08 22:42:05;;;;;;;15.13;7.10;;;10.50;99.90;;;;;;10478480;28;20260;-66
2024/02/08 22:47:09;;;;;;;12.02;5.47;;;10.50;99.90;;;;;;10479908;28;20215;-66
2024/02/08 22:52:13;;;;;;;12.13;6.27;;;10.50;99.90;;;;;;10470941;28;20273;-66
2024/02/08 22:57:18;;;;;;;11.37;6.47;;;10.60;99.90;;;;;;10475022;28;20257;-66
2024/02/08 23:02:22;;;;;;;12.57;6.67;;;10.50;99.90;;;;;;10486030;28;20367;-65
2024/02/08 23:07:25;;;;;;;14.43;6.88;;;10.50;99.90;;;;;;10485785;28;20296;-65
2024/02/08 23:12:30;;;;;;;10.93;6.30;;;10.50;99.90;;;;;;10475926;28;20911;-65
2024/02/08 23:17:34;;;;;;;9.52;5.40;;;10.50;99.90;;;;;;10468007;28;20243;-66
2024/02/08 23:22:40;;;;;;;15.13;7.15;;;10.50;99.90;;;;;;10480198;28;20268;-65
2024/02/08 23:27:47;;;;;;;9.48;5.40;;;10.50;99.90;;;;;;10482508;28;20280;-67
2024/02/08 23:32:52;;;;;;;11.25;5.65;;;10.50;99.90;;;;;;10481958;28;20264;-64
2024/02/08 23:37:57;;;;;;;17.27;6.30;;;10.50;99.90;;;;;;10492627;28;20223;-63
2024/02/08 23:43:07;;;;;;;11.53;4.73;;;10.50;99.90;;;;;;10479934;28;20654;-64
2024/02/08 23:48:11;;;;;;;9.23;4.90;;;10.50;99.90;;;;;;10479656;28;20223;-64
2024/02/08 23:53:15;;;;;;;16.45;5.50;;;10.50;99.90;;;;;;10476574;28;20328;-63
2024/02/08 23:58:28;;;;;;;10.52;4.80;;;10.60;99.90;;;;;;10475819;28;20252;-65
